Time;durP1;ratioP1;P1;durP2;ratioP2;P2;SDS_P1;SDS_P2;PMS_P1;PMS_P2;Temp;Humidity;BMP_temperature;BMP_pressure;BME280_temperature;BME280_humidity;BME280_pressure;Samples;Min_cycle;Max_cycle;Signal;HPM_P1;HPM_P2
2022/04/26 03:36:11;;;;;;;16.80;15.00;;;11.80;99.90;;;;;;5063340;28;20247;-61
2022/04/26 03:38:41;;;;;;;14.80;13.30;;;11.80;99.90;;;;;;5072702;28;20295;-60
2022/04/26 03:41:08;;;;;;;17.13;14.97;;;11.90;99.90;;;;;;5072415;28;20295;-61
2022/04/26 03:43:35;;;;;;;14.10;12.70;;;12.00;99.90;;;;;;5072276;28;20676;-59
2022/04/26 03:46:02;;;;;;;16.37;14.67;;;12.00;99.90;;;;;;5071662;28;20204;-59
2022/04/26 03:48:29;;;;;;;15.10;13.60;;;12.00;99.90;;;;;;5072308;28;20274;-61
2022/04/26 03:50:56;;;;;;;14.87;13.37;;;11.90;99.90;;;;;;5072061;28;20581;-62
2022/04/26 03:53:24;;;;;;;14.37;12.87;;;11.80;99.90;;;;;;5072162;28;20294;-59
2022/04/26 03:55:50;;;;;;;12.20;11.00;;;11.70;99.90;;;;;;5072312;28;20270;-61
2022/04/26 03:58:17;;;;;;;12.37;11.07;;;11.70;99.90;;;;;;5072322;28;20213;-61
2022/04/26 04:00:44;;;;;;;11.70;10.60;;;11.70;99.90;;;;;;5071929;28;20216;-60
2022/04/26 04:03:11;;;;;;;12.37;11.17;;;11.80;99.90;;;;;;5072059;28;20224;-60
2022/04/26 04:05:38;;;;;;;12.13;10.93;;;11.90;99.90;;;;;;5072263;28;20204;-59
2022/04/26 04:08:05;;;;;;;12.93;11.63;;;11.90;99.90;;;;;;5072153;28;20261;-60
2022/04/26 04:10:33;;;;;;;14.10;12.50;;;11.90;99.90;;;;;;5071819;28;20215;-59
2022/04/26 04:13:00;;;;;;;13.23;11.83;;;12.00;99.90;;;;;;5072499;28;20233;-59
2022/04/26 04:15:26;;;;;;;11.10;10.00;;;12.00;99.90;;;;;;5071966;28;20208;-60
2022/04/26 04:17:53;;;;;;;11.43;10.33;;;12.00;99.90;;;;;;5072183;28;20230;-60
2022/04/26 04:20:20;;;;;;;13.13;11.80;;;12.10;99.90;;;;;;5071992;28;20573;-59
2022/04/26 04:22:48;;;;;;;13.17;11.77;;;12.10;99.90;;;;;;5071833;28;20224;-60
2022/04/26 04:25:15;;;;;;;11.73;10.53;;;12.20;99.90;;;;;;5071865;28;20764;-60
2022/04/26 04:27:43;;;;;;;13.23;11.83;;;12.30;99.90;;;;;;5072019;28;20232;-59
2022/04/26 04:30:11;;;;;;;14.87;13.30;;;12.30;99.90;;;;;;5071500;28;20209;-61
2022/04/26 04:32:38;;;;;;;11.33;10.23;;;12.30;99.90;;;;;;5072362;28;20233;-61
2022/04/26 04:35:06;;;;;;;11.67;10.57;;;12.40;99.90;;;;;;5071766;28;20286;-61
2022/04/26 04:37:33;;;;;;;11.53;10.43;;;12.40;99.90;;;;;;5071830;28;20209;-61
2022/04/26 04:40:00;;;;;;;12.60;11.30;;;12.40;99.90;;;;;;5071780;28;20208;-61
2022/04/26 04:42:27;;;;;;;12.00;10.80;;;12.50;99.90;;;;;;5071219;28;20292;-61
2022/04/26 04:44:55;;;;;;;13.77;11.17;;;12.50;99.90;;;;;;5071915;28;20201;-60
2022/04/26 04:47:22;;;;;;;11.83;10.63;;;12.50;99.90;;;;;;5071878;28;20209;-62
2022/04/26 04:49:48;;;;;;;12.33;11.10;;;12.50;99.90;;;;;;5071851;28;20555;-59
2022/04/26 04:52:15;;;;;;;12.00;10.73;;;12.60;99.90;;;;;;5071468;28;20209;-60
2022/04/26 04:54:42;;;;;;;13.03;11.13;;;12.60;99.90;;;;;;5072143;28;20224;-60
2022/04/26 04:57:08;;;;;;;10.50;9.50;;;12.50;99.90;;;;;;5074822;28;20231;-60
2022/04/26 04:59:35;;;;;;;10.73;9.70;;;12.40;99.90;;;;;;5076168;28;20204;-61
2022/04/26 05:02:03;;;;;;;10.83;9.73;;;12.30;99.90;;;;;;5075416;28;20262;-61
2022/04/26 05:04:30;;;;;;;10.13;9.13;;;12.30;99.90;;;;;;5075611;28;20613;-61
2022/04/26 05:06:57;;;;;;;9.43;8.47;;;12.30;99.90;;;;;;5075398;28;20209;-61
2022/04/26 05:09:23;;;;;;;9.93;9.03;;;12.30;99.90;;;;;;5075380;28;20281;-61
2022/04/26 05:11:50;;;;;;;10.53;9.53;;;12.10;99.90;;;;;;5074951;28;20296;-61
2022/04/26 05:14:17;;;;;;;9.83;8.87;;;12.10;99.90;;;;;;5075341;28;20278;-60
2022/04/26 05:16:43;;;;;;;11.40;10.20;;;12.00;99.90;;;;;;5075279;28;20212;-61
2022/04/26 05:19:11;;;;;;;11.00;10.00;;;12.00;99.90;;;;;;5075082;28;20235;-61
2022/04/26 05:21:38;;;;;;;10.70;9.70;;;12.10;99.90;;;;;;5074939;28;20205;-62
2022/04/26 05:26:50;;;;;;;10.53;9.50;;;12.30;99.90;;;;;;5075165;28;20204;-62
2022/04/26 05:29:16;;;;;;;9.87;8.87;;;12.40;99.90;;;;;;5075109;28;20208;-62
2022/04/26 05:31:43;;;;;;;11.43;10.33;;;12.20;99.90;;;;;;5075148;28;20299;-61
2022/04/26 05:34:11;;;;;;;8.70;7.90;;;12.20;99.90;;;;;;5075315;28;20225;-60
2022/04/26 05:36:38;;;;;;;8.00;7.20;;;12.30;99.90;;;;;;5075140;28;20266;-60
2022/04/26 05:39:04;;;;;;;8.50;7.17;;;12.40;99.90;;;;;;5075704;28;20204;-60
2022/04/26 05:41:31;;;;;;;8.83;8.03;;;12.40;99.90;;;;;;5074574;28;20204;-60
2022/04/26 05:43:58;;;;;;;8.37;7.47;;;12.60;99.90;;;;;;5074613;28;20723;-60
2022/04/26 05:46:24;;;;;;;9.30;8.33;;;12.70;99.90;;;;;;5074636;28;20247;-61
2022/04/26 05:48:51;;;;;;;10.30;9.17;;;12.80;99.90;;;;;;5074775;28;20243;-60
2022/04/26 05:51:19;;;;;;;9.90;8.90;;;12.80;99.90;;;;;;5074388;28;20211;-60
2022/04/26 05:53:46;;;;;;;8.23;7.43;;;12.80;99.90;;;;;;5074157;28;20236;-60
2022/04/26 05:56:15;;;;;;;7.77;7.07;;;12.80;99.90;;;;;;5074631;28;20211;-61
2022/04/26 05:58:42;;;;;;;8.03;7.30;;;12.90;99.90;;;;;;5074497;28;20296;-60
2022/04/26 06:01:09;;;;;;;7.47;6.77;;;13.00;99.90;;;;;;5074343;28;20212;-61
2022/04/26 06:03:35;;;;;;;6.00;5.50;;;13.00;99.90;;;;;;5074156;28;20631;-60
2022/04/26 06:06:02;;;;;;;9.13;5.67;;;13.10;99.90;;;;;;5074486;28;20209;-59
2022/04/26 06:08:31;;;;;;;6.67;5.60;;;13.20;99.90;;;;;;5073801;28;20266;-60
2022/04/26 06:10:58;;;;;;;5.70;5.20;;;13.30;99.90;;;;;;5074345;28;20263;-60
2022/04/26 06:13:24;;;;;;;6.60;5.03;;;13.40;99.90;;;;;;5074255;28;20229;-60
2022/04/26 06:15:51;;;;;;;5.80;5.20;;;13.40;99.90;;;;;;5074217;28;20235;-60
2022/04/26 06:18:18;;;;;;;5.67;5.10;;;13.50;99.90;;;;;;5074094;28;20212;-60
2022/04/26 06:20:44;;;;;;;6.20;5.10;;;13.60;99.90;;;;;;5074075;28;20209;-60
2022/04/26 06:23:11;;;;;;;5.53;5.03;;;13.60;99.90;;;;;;5074111;28;20316;-59
2022/04/26 06:25:39;;;;;;;5.53;5.03;;;13.60;99.90;;;;;;5074205;28;20204;-60
2022/04/26 06:28:09;;;;;;;5.80;5.30;;;13.60;99.90;;;;;;5074068;28;20209;-59
2022/04/26 06:30:38;;;;;;;6.27;5.67;;;13.70;99.90;;;;;;5073282;28;20213;-60
2022/04/26 06:33:05;;;;;;;6.20;5.60;;;13.80;99.90;;;;;;5073723;28;20286;-60
2022/04/26 06:35:31;;;;;;;5.93;5.13;;;13.80;99.90;;;;;;5074197;28;20225;-60
2022/04/26 06:37:59;;;;;;;5.53;5.03;;;14.00;99.90;;;;;;5073556;28;20672;-61
2022/04/26 06:40:25;;;;;;;5.07;4.57;;;14.00;99.90;;;;;;5073417;28;20684;-60
2022/04/26 06:42:53;;;;;;;5.70;5.20;;;14.10;99.90;;;;;;5073436;28;20237;-60
2022/04/26 06:45:20;;;;;;;5.40;5.00;;;14.20;99.90;;;;;;5073396;28;20204;-60
2022/04/26 06:47:49;;;;;;;6.17;5.53;;;14.20;99.90;;;;;;5073563;28;20278;-61
2022/04/26 06:50:16;;;;;;;6.27;5.77;;;14.20;99.90;;;;;;5073637;28;20579;-61
2022/04/26 06:52:43;;;;;;;5.80;5.30;;;14.20;99.90;;;;;;5073443;28;20228;-61
2022/04/26 06:55:10;;;;;;;7.37;6.67;;;14.20;99.90;;;;;;5073766;28;20220;-60
2022/04/26 06:57:37;;;;;;;6.17;5.57;;;14.10;99.90;;;;;;5073875;28;20207;-59
2022/04/26 07:00:07;;;;;;;7.07;6.47;;;14.20;99.90;;;;;;5073676;28;20296;-59
2022/04/26 07:02:34;;;;;;;6.47;5.53;;;14.10;99.90;;;;;;5073270;28;20221;-59
2022/04/26 07:05:01;;;;;;;6.00;5.50;;;14.10;99.90;;;;;;5073430;28;20603;-62
2022/04/26 07:07:28;;;;;;;6.00;5.40;;;14.10;99.90;;;;;;5073310;28;20208;-60
2022/04/26 07:09:54;;;;;;;7.03;6.20;;;14.20;99.90;;;;;;5073123;28;20589;-61
2022/04/26 07:12:21;;;;;;;6.83;6.13;;;14.20;99.90;;;;;;5072736;28;20213;-61
2022/04/26 07:14:48;;;;;;;7.80;7.00;;;14.20;99.90;;;;;;5073250;28;20232;-61
2022/04/26 07:17:18;;;;;;;7.80;6.60;;;14.30;99.90;;;;;;5073125;28;20209;-61
2022/04/26 07:19:45;;;;;;;7.17;6.47;;;14.20;99.90;;;;;;5071970;28;20212;-61
2022/04/26 07:22:11;;;;;;;7.00;6.40;;;14.20;99.90;;;;;;5072800;28;20205;-59
2022/04/26 07:24:38;;;;;;;7.03;6.33;;;14.20;99.90;;;;;;5073184;28;20707;-60
2022/04/26 07:27:05;;;;;;;8.90;6.40;;;14.30;99.90;;;;;;5073391;28;20640;-60
2022/04/26 07:29:31;;;;;;;8.17;6.83;;;14.20;99.90;;;;;;5073046;28;20205;-60
2022/04/26 07:31:58;;;;;;;8.33;7.40;;;14.20;99.90;;;;;;5072790;28;20304;-63
2022/04/26 07:34:25;;;;;;;7.17;6.57;;;14.20;99.90;;;;;;5072522;28;20232;-60
2022/04/26 07:36:54;;;;;;;7.90;7.10;;;14.20;99.90;;;;;;5072536;28;20205;-60
2022/04/26 07:39:21;;;;;;;7.53;6.80;;;14.20;99.90;;;;;;5072607;28;20591;-59
2022/04/26 07:41:49;;;;;;;8.13;7.33;;;14.10;99.90;;;;;;5072199;28;20211;-60
2022/04/26 07:44:16;;;;;;;8.40;6.87;;;14.00;99.90;;;;;;5072731;28;20220;-61
2022/04/26 07:46:44;;;;;;;7.17;6.47;;;14.00;99.90;;;;;;5072561;28;20205;-61
2022/04/26 07:49:12;;;;;;;7.70;7.00;;;14.10;99.90;;;;;;5072605;28;20212;-61
2022/04/26 07:51:40;;;;;;;8.07;7.10;;;14.40;99.90;;;;;;5072160;28;20231;-57
2022/04/26 07:54:07;;;;;;;8.30;7.50;;;14.80;99.90;;;;;;5068944;28;20472;-58
2022/04/26 07:56:34;;;;;;;8.33;7.53;;;15.30;99.90;;;;;;5071886;28;20235;-57
2022/04/26 07:59:03;;;;;;;8.13;7.13;;;15.70;99.90;;;;;;5072295;28;20204;-57
2022/04/26 08:01:31;;;;;;;7.67;6.50;;;15.90;99.90;;;;;;5071817;28;20233;-57
2022/04/26 08:03:58;;;;;;;8.03;7.23;;;16.10;99.90;;;;;;5071867;28;20235;-57
2022/04/26 08:06:25;;;;;;;8.37;7.00;;;16.00;99.90;;;;;;5072578;28;20212;-57
2022/04/26 08:08:54;;;;;;;8.70;7.87;;;16.10;99.90;;;;;;5072152;28;20680;-58
2022/04/26 08:11:21;;;;;;;8.30;7.50;;;16.00;99.90;;;;;;5072195;28;20208;-60
2022/04/26 08:13:48;;;;;;;8.97;7.23;;;15.90;99.90;;;;;;5072078;28;20608;-59
2022/04/26 08:16:14;;;;;;;9.17;8.27;;;15.80;99.90;;;;;;5071840;28;20232;-60
2022/04/26 08:18:41;;;;;;;13.50;12.10;;;15.80;99.90;;;;;;5072585;28;20255;-60
2022/04/26 08:21:09;;;;;;;9.17;8.20;;;15.70;99.90;;;;;;5071293;28;20292;-60
2022/04/26 08:27:22;;;;;;;9.23;8.33;;;15.60;99.90;;;;;;5072282;28;20229;-60
2022/04/26 08:29:09;;;;;;;8.40;7.47;;;15.60;99.90;;;;;;5071802;28;20207;-60
2022/04/26 08:31:37;;;;;;;7.57;6.77;;;15.50;99.90;;;;;;5071229;28;20238;-60
2022/04/26 08:34:04;;;;;;;10.57;7.47;;;15.50;99.90;;;;;;5071632;28;20286;-59
2022/04/26 08:36:31;;;;;;;9.77;7.87;;;15.60;99.90;;;;;;5071546;28;20243;-61
2022/04/26 08:38:58;;;;;;;8.63;7.77;;;15.80;99.90;;;;;;5072152;28;20299;-57
2022/04/26 08:41:26;;;;;;;9.10;8.20;;;16.10;99.90;;;;;;5071669;28;20209;-59
2022/04/26 08:43:53;;;;;;;8.83;8.00;;;16.20;99.90;;;;;;5071601;28;20240;-58
2022/04/26 08:46:20;;;;;;;9.00;8.10;;;16.30;99.90;;;;;;5071147;28;20213;-58
2022/04/26 08:51:30;;;;;;;9.10;8.20;;;16.60;99.90;;;;;;5072006;28;20203;-58
2022/04/26 08:53:58;;;;;;;7.90;7.10;;;16.60;99.90;;;;;;5071793;28;20237;-59
2022/04/26 08:56:26;;;;;;;8.57;7.73;;;16.70;99.90;;;;;;5071351;28;20225;-58
2022/04/26 08:58:53;;;;;;;8.27;7.47;;;16.90;99.90;;;;;;5071946;28;20212;-57
2022/04/26 09:01:22;;;;;;;8.77;7.87;;;17.10;99.90;;;;;;5072374;28;20204;-62
2022/04/26 09:03:55;;;;;;;10.03;8.80;;;17.30;99.90;;;;;;5072585;28;20233;-65
2022/04/26 09:06:23;;;;;;;7.80;7.07;;;17.50;99.90;;;;;;5072211;28;20197;-65
2022/04/26 09:08:50;;;;;;;8.90;7.10;;;17.90;99.90;;;;;;5071611;28;20205;-62
2022/04/26 09:11:22;;;;;;;9.27;7.80;;;18.10;99.90;;;;;;5071476;28;20205;-60
2022/04/26 09:13:50;;;;;;;8.95;8.10;;;18.00;99.90;;;;;;5072536;28;20716;-64
2022/04/26 09:16:19;;;;;;;8.38;7.55;;;18.30;99.90;;;;;;5071746;28;20232;-64
2022/04/26 09:18:56;;;;;;;10.05;7.38;;;18.50;99.90;;;;;;5071367;28;20201;-64
2022/04/26 09:21:26;;;;;;;8.07;7.20;;;18.40;99.90;;;;;;5070766;28;20287;-59
2022/04/26 09:23:53;;;;;;;7.70;7.00;;;18.50;99.90;;;;;;5071192;28;20232;-58
2022/04/26 09:26:20;;;;;;;8.20;7.40;;;18.50;99.90;;;;;;5071233;28;20209;-59
2022/04/26 09:28:48;;;;;;;8.60;7.07;;;18.40;99.90;;;;;;5071217;28;20205;-61
2022/04/26 09:31:22;;;;;;;8.45;7.55;;;18.60;99.90;;;;;;5071321;28;20291;-66
2022/04/26 09:33:51;;;;;;;8.68;7.78;;;18.70;99.90;;;;;;5071020;28;20261;-58
2022/04/26 09:36:19;;;;;;;7.97;7.18;;;18.70;99.90;;;;;;5070943;28;20312;-57
2022/04/26 09:38:51;;;;;;;8.80;7.43;;;18.80;99.90;;;;;;5071310;28;20254;-57
2022/04/26 09:41:18;;;;;;;9.50;7.38;;;18.90;99.90;;;;;;5070601;28;20255;-57
2022/04/26 09:43:55;;;;;;;9.07;8.10;;;19.00;99.90;;;;;;5072593;28;20274;-64
2022/04/26 09:46:23;;;;;;;7.20;6.45;;;19.10;99.90;;;;;;5074655;28;20212;-57
2022/04/26 09:48:52;;;;;;;8.15;7.38;;;19.20;99.90;;;;;;5074357;28;20205;-57
2022/04/26 09:51:19;;;;;;;7.45;6.75;;;19.20;99.90;;;;;;5074498;28;20205;-58
2022/04/26 09:53:45;;;;;;;7.57;6.78;;;19.10;99.90;;;;;;5074424;28;20228;-58
2022/04/26 09:56:15;;;;;;;9.35;6.97;;;19.10;99.90;;;;;;5074511;28;20302;-58
2022/04/26 09:58:44;;;;;;;8.63;5.55;;;19.00;99.90;;;;;;5073479;28;20288;-57
2022/04/26 10:01:11;;;;;;;6.15;5.55;;;19.00;99.90;;;;;;5074008;28;20201;-58
2022/04/26 10:03:44;;;;;;;7.45;5.35;;;19.00;99.90;;;;;;5074297;28;20231;-59
2022/04/26 10:06:16;;;;;;;5.80;5.30;;;19.00;99.90;;;;;;5074581;28;20232;-58
2022/04/26 10:08:43;;;;;;;5.70;5.20;;;19.10;99.90;;;;;;5074153;28;20679;-58
2022/04/26 10:11:10;;;;;;;6.15;5.60;;;19.40;99.90;;;;;;5073831;28;20292;-58
2022/04/26 10:13:43;;;;;;;14.50;10.27;;;19.80;99.90;;;;;;5073708;28;20252;-58
2022/04/26 10:16:12;;;;;;;6.45;5.72;;;20.20;99.90;;;;;;5074161;28;20282;-59
2022/04/26 10:18:44;;;;;;;7.00;5.68;;;20.50;97.90;;;;;;5074020;28;20208;-58
2022/04/26 10:21:11;;;;;;;6.15;5.00;;;20.60;97.90;;;;;;5073878;28;20672;-59
2022/04/26 10:24:12;;;;;;;6.30;5.15;;;20.70;95.40;;;;;;5073878;28;20221;-59
2022/04/26 10:26:39;;;;;;;5.85;5.22;;;20.50;95.20;;;;;;5066019;28;20270;-58
2022/04/26 10:29:17;;;;;;;6.57;5.28;;;20.20;95.90;;;;;;5074072;28;20239;-58
2022/04/26 10:31:45;;;;;;;6.38;5.32;;;20.20;95.80;;;;;;5073584;28;20204;-63
2022/04/26 10:34:27;;;;;;;8.38;5.72;;;20.20;95.20;;;;;;5073704;28;20275;-63
2022/04/26 10:36:54;;;;;;;5.40;4.80;;;20.00;95.00;;;;;;5073500;28;20228;-65
2022/04/26 10:39:25;;;;;;;7.80;5.50;;;19.70;95.60;;;;;;5073511;28;20685;-62
2022/04/26 10:41:53;;;;;;;6.95;5.13;;;19.40;96.00;;;;;;5073520;28;20243;-62
2022/04/26 10:44:26;;;;;;;8.75;5.40;;;19.30;96.20;;;;;;5073525;28;20231;-63
2022/04/26 10:47:29;;;;;;;5.70;4.72;;;19.30;95.90;;;;;;5073527;28;20201;-63
2022/04/26 10:50:02;;;;;;;6.78;4.78;;;19.60;95.00;;;;;;5069907;28;20209;-62
2022/04/26 10:52:56;;;;;;;5.60;4.53;;;19.80;95.90;;;;;;5072784;28;20262;-62
2022/04/26 10:55:27;;;;;;;5.35;4.10;;;19.90;93.60;;;;;;5072799;28;20231;-61
2022/04/26 10:57:55;;;;;;;5.68;4.30;;;20.00;92.80;;;;;;5073697;28;20209;-62
2022/04/26 11:00:34;;;;;;;5.28;4.10;;;19.90;92.30;;;;;;5073795;28;20641;-62
2022/04/26 11:03:03;;;;;;;7.78;4.90;;;19.70;93.10;;;;;;5073831;28;20228;-63
2022/04/26 11:05:34;;;;;;;6.45;4.28;;;19.60;93.40;;;;;;5073660;28;20292;-62
2022/04/26 11:08:03;;;;;;;5.68;3.88;;;19.50;92.70;;;;;;5073539;28;20481;-63
2022/04/26 11:11:00;;;;;;;5.75;4.35;;;19.50;93.70;;;;;;5073262;28;20232;-62
2022/04/26 11:13:31;;;;;;;6.30;4.13;;;19.20;93.80;;;;;;5072611;28;20266;-62
2022/04/26 11:16:12;;;;;;;4.78;4.28;;;19.20;92.40;;;;;;5072851;28;20256;-62
2022/04/26 11:18:42;;;;;;;4.93;4.30;;;19.20;92.10;;;;;;5072932;28;20207;-62
2022/04/26 11:21:12;;;;;;;6.78;4.30;;;19.20;92.40;;;;;;5072668;28;20209;-62
2022/04/26 11:29:24;;;;;;;6.20;3.90;;;19.50;90.00;;;;;;5073109;28;20304;-64
2022/04/26 11:31:51;;;;;;;8.95;4.30;;;19.70;91.30;;;;;;5073075;28;20216;-62
2022/04/26 11:34:17;;;;;;;5.65;3.90;;;19.90;92.80;;;;;;5073503;28;20274;-63
2022/04/26 11:36:46;;;;;;;6.00;4.40;;;20.00;90.40;;;;;;5073516;28;20233;-63
2022/04/26 11:39:13;;;;;;;5.50;4.43;;;20.10;90.70;;;;;;5073224;28;20228;-62
2022/04/26 11:41:39;;;;;;;7.18;4.13;;;19.90;92.20;;;;;;5073194;28;20205;-62
2022/04/26 11:44:06;;;;;;;7.20;4.50;;;19.00;92.40;;;;;;5072935;28;20720;-62
2022/04/26 11:46:33;;;;;;;7.40;4.85;;;18.60;94.00;;;;;;5073252;28;20197;-63
2022/04/26 11:49:00;;;;;;;7.32;4.43;;;18.20;94.50;;;;;;5072323;28;20200;-61
2022/04/26 11:51:27;;;;;;;4.75;4.35;;;18.10;95.30;;;;;;5072142;28;20232;-62
2022/04/26 11:53:56;;;;;;;6.70;4.35;;;18.10;95.60;;;;;;5071914;28;20306;-62
2022/04/26 11:56:23;;;;;;;5.47;4.57;;;18.30;95.10;;;;;;5072177;28;20224;-63
2022/04/26 11:58:51;;;;;;;5.53;4.10;;;18.30;94.90;;;;;;5072156;28;20703;-63
2022/04/26 12:01:18;;;;;;;4.55;3.63;;;18.40;95.20;;;;;;5072029;28;20211;-63
2022/04/26 12:03:49;;;;;;;5.97;4.53;;;18.50;95.20;;;;;;5072079;28;20225;-63
2022/04/26 12:06:19;;;;;;;4.07;3.17;;;18.60;95.00;;;;;;5071749;28;20216;-62
2022/04/26 12:08:48;;;;;;;6.45;2.90;;;18.70;94.10;;;;;;5071920;28;20573;-64
2022/04/26 12:11:18;;;;;;;3.30;3.00;;;18.50;93.20;;;;;;5072005;28;20254;-63
2022/04/26 12:13:45;;;;;;;3.08;2.78;;;18.30;93.60;;;;;;5072006;28;20330;-63
2022/04/26 12:16:19;;;;;;;2.70;2.50;;;18.00;94.50;;;;;;5071840;28;20715;-63
2022/04/26 12:18:50;;;;;;;3.05;2.63;;;17.70;94.80;;;;;;5071859;28;20209;-63
2022/04/26 12:21:17;;;;;;;3.20;2.90;;;17.60;94.20;;;;;;5071902;28;20254;-63
2022/04/26 12:23:44;;;;;;;4.03;2.70;;;17.60;93.70;;;;;;5071822;28;20708;-63
2022/04/26 12:26:11;;;;;;;3.08;2.78;;;17.60;93.20;;;;;;5071846;28;20271;-63
2022/04/26 12:28:48;;;;;;;5.18;2.55;;;17.50;92.40;;;;;;5071842;28;20255;-67
2022/04/26 12:31:22;;;;;;;3.08;2.75;;;17.60;92.90;;;;;;5071577;28;20236;-58
2022/04/26 12:34:12;;;;;;;2.67;2.38;;;17.90;93.10;;;;;;5071758;28;20224;-58
2022/04/26 12:37:00;;;;;;;2.80;2.35;;;18.30;90.30;;;;;;5071898;28;20417;-59
2022/04/26 12:39:40;;;;;;;3.45;2.10;;;18.20;90.40;;;;;;5071662;28;20475;-57
2022/04/26 12:42:07;;;;;;;3.58;2.50;;;18.20;89.30;;;;;;5071500;28;20262;-59
2022/04/26 12:44:37;;;;;;;3.70;2.15;;;18.50;90.30;;;;;;5071700;28;20221;-58
2022/04/26 12:52:44;;;;;;;4.47;2.83;;;19.20;84.40;;;;;;5071423;28;20235;-57
2022/04/26 12:55:10;;;;;;;4.10;3.70;;;18.90;87.80;;;;;;5071718;28;20209;-56
2022/04/26 12:57:47;;;;;;;6.00;4.13;;;18.90;90.20;;;;;;5071527;28;20233;-58
2022/04/26 13:00:18;;;;;;;5.32;4.78;;;18.80;90.80;;;;;;5071428;28;20261;-56
2022/04/26 13:02:46;;;;;;;5.88;4.35;;;18.70;91.70;;;;;;5071587;28;20319;-57
2022/04/26 13:05:13;;;;;;;5.38;2.80;;;18.50;93.10;;;;;;5071390;28;20573;-58
2022/04/26 13:07:39;;;;;;;4.65;2.28;;;18.40;92.30;;;;;;5071549;28;20217;-58
2022/04/26 13:10:07;;;;;;;3.95;2.40;;;18.40;91.60;;;;;;5071506;28;20212;-57
2022/04/26 13:12:34;;;;;;;2.67;2.45;;;18.20;91.50;;;;;;5071124;28;20235;-57
2022/04/26 13:15:01;;;;;;;2.47;2.17;;;17.90;91.90;;;;;;5071193;28;20217;-57
2022/04/26 13:17:29;;;;;;;3.47;2.90;;;17.70;92.20;;;;;;5073032;28;20232;-57
2022/04/26 13:19:56;;;;;;;3.13;2.77;;;17.50;92.90;;;;;;5075359;28;20211;-57
2022/04/26 13:22:22;;;;;;;2.95;2.67;;;17.50;93.10;;;;;;5074989;28;20204;-57
2022/04/26 13:24:50;;;;;;;2.40;1.87;;;17.50;93.40;;;;;;5075126;28;20208;-56
2022/04/26 13:27:18;;;;;;;2.20;1.83;;;17.40;92.60;;;;;;5074904;28;20712;-57
2022/04/26 13:29:45;;;;;;;3.33;1.90;;;17.40;92.20;;;;;;5075085;28;20235;-57
2022/04/26 13:32:11;;;;;;;2.78;1.85;;;17.40;92.30;;;;;;5074879;28;20209;-57
2022/04/26 13:34:39;;;;;;;1.93;1.83;;;17.40;92.10;;;;;;5075144;28;20232;-58
2022/04/26 13:37:07;;;;;;;2.93;2.07;;;17.50;92.70;;;;;;5074801;28;20282;-56
2022/04/26 13:39:34;;;;;;;2.33;2.08;;;17.60;92.90;;;;;;5074851;28;20230;-56
2022/04/26 13:42:01;;;;;;;3.25;2.00;;;18.00;92.60;;;;;;5074689;28;20292;-57
2022/04/26 13:44:28;;;;;;;2.95;2.20;;;18.20;91.70;;;;;;5074753;28;20596;-57
2022/04/26 13:46:55;;;;;;;3.28;2.20;;;18.30;91.50;;;;;;5074781;28;20201;-58
2022/04/26 13:49:21;;;;;;;4.55;2.20;;;18.60;91.00;;;;;;5074709;28;20677;-58
2022/04/26 13:51:49;;;;;;;2.67;2.10;;;18.90;90.80;;;;;;5074344;28;20209;-57
2022/04/26 13:54:16;;;;;;;1.77;1.50;;;19.20;90.50;;;;;;5103300;22;20691;-57
2022/04/26 13:56:44;;;;;;;1.73;1.60;;;19.20;86.40;;;;;;5086740;28;20220;-57
2022/04/26 13:59:11;;;;;;;1.67;1.40;;;18.80;89.50;;;;;;5095379;28;20200;-56
2022/04/26 14:01:38;;;;;;;1.95;1.50;;;18.70;88.70;;;;;;5095127;28;20216;-58
2022/04/26 14:04:05;;;;;;;2.70;1.63;;;18.70;89.20;;;;;;5095148;28;20220;-59
2022/04/26 14:06:32;;;;;;;2.67;1.70;;;18.90;89.00;;;;;;5095378;28;20204;-58
2022/04/26 14:09:01;;;;;;;1.88;1.70;;;19.10;89.00;;;;;;5095403;28;20692;-58
2022/04/26 14:11:27;;;;;;;2.88;1.70;;;19.40;88.30;;;;;;5095006;28;20216;-57
2022/04/26 14:22:07;;;;;;;2.80;1.90;;;19.00;82.90;;;;;;5094994;28;20215;-58
2022/04/26 14:24:35;;;;;;;2.08;1.80;;;18.40;86.90;;;;;;5095409;28;20234;-59
2022/04/26 14:27:02;;;;;;;2.65;1.70;;;18.00;86.70;;;;;;5095794;28;20204;-58
2022/04/26 14:29:29;;;;;;;2.38;2.00;;;17.80;86.80;;;;;;5094449;28;20203;-58
2022/04/26 14:31:55;;;;;;;3.65;2.05;;;17.60;88.20;;;;;;5094850;28;20204;-61
2022/04/26 14:34:22;;;;;;;2.30;2.00;;;17.60;87.90;;;;;;5094959;28;20235;-58
2022/04/26 14:36:49;;;;;;;2.22;2.03;;;17.60;86.70;;;;;;5095130;28;20224;-58
2022/04/26 14:39:16;;;;;;;1.60;1.50;;;17.50;87.60;;;;;;5095328;28;20215;-57
2022/04/26 14:41:44;;;;;;;4.13;2.07;;;17.50;87.60;;;;;;5094802;28;20204;-58
2022/04/26 14:44:11;;;;;;;4.18;2.67;;;17.60;88.50;;;;;;5094996;28;20224;-58
2022/04/26 14:46:38;;;;;;;2.00;1.77;;;17.70;86.10;;;;;;5094864;28;20227;-57
2022/04/26 14:49:06;;;;;;;1.80;1.70;;;17.80;86.80;;;;;;5095107;28;20204;-57
2022/04/26 14:51:32;;;;;;;2.20;2.00;;;17.90;83.90;;;;;;5094787;28;20208;-58
2022/04/26 14:53:59;;;;;;;3.13;1.77;;;17.90;84.40;;;;;;5094574;28;20240;-58
2022/04/26 14:56:26;;;;;;;2.20;1.70;;;17.90;83.60;;;;;;5094727;28;20227;-58
2022/04/26 14:58:54;;;;;;;1.70;1.50;;;18.00;83.30;;;;;;5095211;28;20257;-57
2022/04/26 15:01:21;;;;;;;1.90;1.60;;;18.00;82.80;;;;;;5094180;28;20208;-57
2022/04/26 15:03:48;;;;;;;1.97;1.77;;;18.30;82.60;;;;;;5094505;28;20310;-58
2022/04/26 15:06:15;;;;;;;2.47;1.80;;;18.40;82.60;;;;;;5094608;28;20204;-57
2022/04/26 15:11:25;;;;;;;2.42;1.60;;;18.20;83.80;;;;;;5094313;28;20227;-58
2022/04/26 15:16:38;;;;;;;1.98;1.65;;;18.10;85.40;;;;;;5094752;28;20208;-57
2022/04/26 15:19:05;;;;;;;2.30;1.95;;;18.10;86.40;;;;;;5094299;28;20211;-58
2022/04/26 15:21:31;;;;;;;2.05;1.80;;;18.00;86.00;;;;;;5093991;28;20207;-58
2022/04/26 15:23:58;;;;;;;3.93;1.80;;;18.00;87.50;;;;;;5093940;28;20224;-57
2022/04/26 15:26:25;;;;;;;3.20;1.60;;;18.00;88.20;;;;;;5093382;28;20667;-56
2022/04/26 15:28:54;;;;;;;2.92;1.80;;;17.90;88.40;;;;;;5094057;28;20204;-59
2022/04/26 15:31:21;;;;;;;4.05;2.40;;;17.70;89.60;;;;;;5093737;28;20633;-58
2022/04/26 15:33:51;;;;;;;2.50;1.85;;;17.60;89.40;;;;;;5093691;28;20715;-58
2022/04/26 15:36:19;;;;;;;1.40;1.30;;;17.60;90.00;;;;;;5094151;28;20208;-58
2022/04/26 15:38:47;;;;;;;1.40;1.30;;;17.80;88.20;;;;;;5093676;28;20303;-58
2022/04/26 15:41:14;;;;;;;1.30;1.15;;;17.90;88.00;;;;;;5092843;28;20232;-59
2022/04/26 15:43:42;;;;;;;3.88;1.08;;;18.10;87.50;;;;;;5093682;28;20711;-59
2022/04/26 15:46:11;;;;;;;1.05;0.82;;;18.10;85.20;;;;;;5093050;28;20203;-58
2022/04/26 15:48:44;;;;;;;4.80;1.20;;;18.20;85.40;;;;;;5093415;28;20222;-57
2022/04/26 15:51:11;;;;;;;3.35;1.77;;;18.30;84.00;;;;;;5093147;28;20298;-59
2022/04/26 15:53:38;;;;;;;2.20;1.55;;;18.40;84.40;;;;;;5093405;28;20726;-59
2022/04/26 15:56:05;;;;;;;3.28;2.00;;;18.50;85.00;;;;;;5093032;28;20725;-58
2022/04/26 15:58:32;;;;;;;1.60;1.50;;;18.50;84.50;;;;;;5093232;28;20315;-58
2022/04/26 16:00:59;;;;;;;1.80;1.40;;;18.40;84.80;;;;;;5094036;28;20200;-60
2022/04/26 16:03:27;;;;;;;3.08;1.90;;;18.10;88.20;;;;;;5093616;28;20228;-58
2022/04/26 16:05:54;;;;;;;2.13;1.60;;;17.90;90.30;;;;;;5092891;28;20694;-58
2022/04/26 16:08:20;;;;;;;1.60;1.42;;;17.80;91.10;;;;;;5093216;28;20211;-58
2022/04/26 16:21:45;;;;;;;1.97;1.87;;;15.60;94.20;;;;;;5093131;28;20206;-57
2022/04/26 16:24:12;;;;;;;4.33;2.30;;;15.50;94.80;;;;;;5092849;28;20224;-59
2022/04/26 16:26:39;;;;;;;2.77;2.57;;;15.30;95.90;;;;;;5092645;28;20672;-58
2022/04/26 16:29:07;;;;;;;3.50;3.13;;;15.10;97.00;;;;;;5093010;28;20279;-58
2022/04/26 16:31:34;;;;;;;4.57;2.80;;;14.90;98.90;;;;;;5093014;28;20208;-57
2022/04/26 16:34:03;;;;;;;5.70;2.70;;;14.90;99.90;;;;;;5093135;28;20230;-58
2022/04/26 16:36:30;;;;;;;2.87;2.53;;;14.70;99.90;;;;;;5092928;28;20229;-58
2022/04/26 16:38:58;;;;;;;3.27;2.27;;;14.50;99.90;;;;;;5092956;28;20231;-58
2022/04/26 16:41:25;;;;;;;3.00;2.27;;;14.70;99.90;;;;;;5092714;28;20216;-58
2022/04/26 16:43:52;;;;;;;2.87;2.30;;;14.70;99.90;;;;;;5092701;28;20254;-58
2022/04/26 16:46:19;;;;;;;1.73;1.63;;;14.80;99.90;;;;;;5092931;28;20207;-58
2022/04/26 16:48:46;;;;;;;2.60;1.97;;;15.00;98.90;;;;;;5092678;28;20221;-59
2022/04/26 16:51:15;;;;;;;4.23;2.50;;;15.00;99.90;;;;;;5092882;28;20204;-58
2022/04/26 16:53:42;;;;;;;5.60;2.97;;;15.10;99.90;;;;;;5096045;28;20373;-61
2022/04/26 16:56:09;;;;;;;3.83;2.30;;;15.20;99.90;;;;;;5097047;28;20212;-59
2022/04/26 16:58:36;;;;;;;2.87;2.50;;;15.10;99.90;;;;;;5096980;28;20228;-57
2022/04/26 17:01:03;;;;;;;3.00;2.50;;;15.00;99.90;;;;;;5097034;28;20208;-58
2022/04/26 17:03:30;;;;;;;3.13;2.70;;;14.80;99.90;;;;;;5096400;28;20224;-57
2022/04/26 17:05:58;;;;;;;3.13;2.50;;;14.70;99.90;;;;;;5096645;28;20214;-58
2022/04/26 17:08:26;;;;;;;3.93;2.80;;;14.70;99.90;;;;;;5096343;28;20227;-57